Airfield :
LOGIN :

Register | Disclaimer

   EN    FR    IT 

 










Legend :    VFR   Marginal VFR   IFR   Intensive IFR   Very Intensive IFR
Visi :
Ceiling :
>= 8 km
>= 3000ft
5 to 8 km
1000 to 3000 ft
1500m to 5 km
500 to 1000 ft
800 to 1500m
200 to 500 ft
< 800m
< 200 ft
Symbols :   Thunderstorms  Fog  Heavy snow  Heavy precipitations  Wind > 20 kt
SIGMETs :     Misc.  Thunderstorms  Icing  Turbulence  Mountain Waves  Volcanic Ashes







- Airport Elevation : 46 ft
- IATA code : PAF


LPMT - Montijo Air Base

CURRENT METAR :
  • 181700Z 34008KT 9999 FEW035 20/15 Q1008

EXPIRED METARs :
  • 181600Z 34009KT 9999 FEW040 22/15 Q1008
  • 181500Z 36007KT 9999 FEW042 23/14 Q1008

TAF TAF LPMT
Valid from the 18 at 18:00 until the 19 at 18:00 UTC


181707Z 1818/1918 34012KT 9999 FEW035
BECMG 1820/1822 02007KT
BECMG 1908/1910 02012KT
BECMG 1916/1918 10005KT
No reported NOTAMs for that airfield.
3 SIGMETs reported for the Lisboa FIR (LPPC) :
 
Embedded thunderstorms
LPPC SIGMET 5 VALID 181735/182135 LPPT
LPPC LISBON FIR EMBD TS OBS E OF LINE N3740 W00800 - N3900 W00755 - N3950 W00835 TOP FL320 MOV SW 25KT NC=
SIGMET 3  cancelation
LPPC SIGMET 4 VALID 181725/181805 LPPT
LPPC LISBON FIR CNL SIGMET 3 181405/181805=
SIGMET 3  CANCELED :
Embedded thunderstorms
LPPC SIGMET 3 VALID 181405/181805 LPPT
LPPC LISBON FIR EMBD TS FCST S OF N3645 AND E OF W01000 TOP FL300 MOV SE 20KT NC=



MET'MAP, your aeronautical weather chart ! - Copyright ORBIFLY December 2007 - Disclaimer

ORBIFLY MET'MAP TEAM :

Programming & Development : Alexandra Zaïnal
Concept & Development : Baudouin d'Aumeries
Co-Development & Prog : Marc-Olivier Méhu
Technical & hardware support : Manuel Goepfert

Contact : metmap@orbifly.com




SOURCES & CREDITS :

   NOAA